sensor_id;sensor_type;location;lat;lon;timestamp;pressure;altitude;pressure_sealevel;temperature;humidity
37648;BME280;23490;53.656;10.076;2022-08-19T00:02:21;55874.47;;;-145.95;84.69
37648;BME280;23490;53.656;10.076;2022-08-19T00:04:46;55919.31;;;-145.95;85.22
37648;BME280;23490;53.656;10.076;2022-08-19T00:07:13;55880.56;;;-145.95;85.61
37648;BME280;23490;53.656;10.076;2022-08-19T00:09:38;55890.78;;;-145.95;85.08
37648;BME280;23490;53.656;10.076;2022-08-19T00:12:04;55911.16;;;-145.95;85.06
37648;BME280;23490;53.656;10.076;2022-08-19T00:14:29;55890.78;;;-145.95;85.16
37648;BME280;23490;53.656;10.076;2022-08-19T00:16:57;55925.44;;;-145.95;85.88
37648;BME280;23490;53.656;10.076;2022-08-19T00:19:23;55872.41;;;-145.95;85.84
37648;BME280;23490;53.656;10.076;2022-08-19T00:21:49;55923.41;;;-145.95;86.40
37648;BME280;23490;53.656;10.076;2022-08-19T00:24:14;55892.81;;;-145.95;86.53
37648;BME280;23490;53.656;10.076;2022-08-19T00:26:40;55866.31;;;-145.95;86.22
37648;BME280;23490;53.656;10.076;2022-08-19T00:29:11;55872.41;;;-145.95;86.35
37648;BME280;23490;53.656;10.076;2022-08-19T00:31:37;55927.47;;;-145.95;86.21
37648;BME280;23490;53.656;10.076;2022-08-19T00:34:02;55886.69;;;-145.95;85.82
37648;BME280;23490;53.656;10.076;2022-08-19T00:36:28;55894.84;;;-145.95;86.42
37648;BME280;23490;53.656;10.076;2022-08-19T00:38:54;55911.16;;;-145.95;87.10
37648;BME280;23490;53.656;10.076;2022-08-19T00:41:20;55866.31;;;-145.95;87.41
37648;BME280;23490;53.656;10.076;2022-08-19T00:46:23;55911.16;;;-145.95;87.20
37648;BME280;23490;53.656;10.076;2022-08-19T00:48:49;55882.63;;;-145.95;87.32
37648;BME280;23490;53.656;10.076;2022-08-19T00:51:14;55907.09;;;-145.95;87.44
37648;BME280;23490;53.656;10.076;2022-08-19T00:53:39;55874.47;;;-145.95;87.46
37648;BME280;23490;53.656;10.076;2022-08-19T00:56:05;55905.03;;;-145.95;87.08
37648;BME280;23490;53.656;10.076;2022-08-19T00:58:32;55919.31;;;-145.95;87.33
37648;BME280;23490;53.656;10.076;2022-08-19T01:00:58;55907.09;;;-145.95;88.08
37648;BME280;23490;53.656;10.076;2022-08-19T01:03:23;55919.31;;;-145.95;87.23
37648;BME280;23490;53.656;10.076;2022-08-19T01:05:49;55888.72;;;-145.95;87.64
37648;BME280;23490;53.656;10.076;2022-08-19T01:08:16;55878.53;;;-145.95;87.87
37648;BME280;23490;53.656;10.076;2022-08-19T01:10:45;55870.38;;;-145.95;87.70
37648;BME280;23490;53.656;10.076;2022-08-19T01:13:11;55939.72;;;-145.95;87.74
37648;BME280;23490;53.656;10.076;2022-08-19T01:15:40;55898.94;;;-145.95;87.55
37648;BME280;23490;53.656;10.076;2022-08-19T01:18:08;55870.38;;;-145.95;87.98
37648;BME280;23490;53.656;10.076;2022-08-19T01:20:34;55890.78;;;-145.95;88.08
37648;BME280;23490;53.656;10.076;2022-08-19T01:23:00;55935.63;;;-145.95;88.98
37648;BME280;23490;53.656;10.076;2022-08-19T01:25:33;55882.63;;;-145.95;88.31
37648;BME280;23490;53.656;10.076;2022-08-19T01:28:00;55852.03;;;-145.95;88.49
37648;BME280;23490;53.656;10.076;2022-08-19T01:30:27;55890.78;;;-145.95;88.33
37648;BME280;23490;53.656;10.076;2022-08-19T01:32:53;55915.25;;;-145.95;88.35
37648;BME280;23490;53.656;10.076;2022-08-19T01:35:18;55896.88;;;-145.95;88.16
37648;BME280;23490;53.656;10.076;2022-08-19T01:37:46;55870.38;;;-145.95;88.26
37648;BME280;23490;53.656;10.076;2022-08-19T01:40:11;55874.47;;;-145.95;89.01
37648;BME280;23490;53.656;10.076;2022-08-19T01:42:37;55886.69;;;-145.95;89.66
37648;BME280;23490;53.656;10.076;2022-08-19T01:45:02;55896.88;;;-145.95;90.24
37648;BME280;23490;53.656;10.076;2022-08-19T01:47:28;55972.34;;;-145.95;90.04
37648;BME280;23490;53.656;10.076;2022-08-19T01:49:53;55872.41;;;-145.95;90.21
37648;BME280;23490;53.656;10.076;2022-08-19T01:52:19;55874.47;;;-145.95;90.66
37648;BME280;23490;53.656;10.076;2022-08-19T01:54:44;55898.94;;;-145.95;91.00
37648;BME280;23490;53.656;10.076;2022-08-19T01:57:11;55898.94;;;-145.95;91.66
37648;BME280;23490;53.656;10.076;2022-08-19T01:59:37;55886.69;;;-145.95;91.24
37648;BME280;23490;53.656;10.076;2022-08-19T02:02:04;55876.50;;;-145.95;90.96
37648;BME280;23490;53.656;10.076;2022-08-19T02:04:32;55905.03;;;-145.95;91.39
37648;BME280;23490;53.656;10.076;2022-08-19T02:06:57;55943.78;;;-145.95;91.84
37648;BME280;23490;53.656;10.076;2022-08-19T02:09:22;55878.53;;;-145.95;91.77
37648;BME280;23490;53.656;10.076;2022-08-19T02:11:48;55894.84;;;-145.95;91.36
37648;BME280;23490;53.656;10.076;2022-08-19T02:14:13;55878.53;;;-145.95;91.81
37648;BME280;23490;53.656;10.076;2022-08-19T02:16:38;55911.16;;;-145.95;91.37
37648;BME280;23490;53.656;10.076;2022-08-19T02:19:05;55886.69;;;-145.95;92.61
37648;BME280;23490;53.656;10.076;2022-08-19T02:21:30;55927.47;;;-145.95;92.56
37648;BME280;23490;53.656;10.076;2022-08-19T02:23:56;55907.09;;;-145.95;92.92
37648;BME280;23490;53.656;10.076;2022-08-19T02:26:21;55923.41;;;-145.95;92.76
37648;BME280;23490;53.656;10.076;2022-08-19T02:28:47;55866.31;;;-145.95;92.95
37648;BME280;23490;53.656;10.076;2022-08-19T02:31:15;55890.78;;;-145.95;92.83
37648;BME280;23490;53.656;10.076;2022-08-19T02:33:40;55890.78;;;-145.95;93.13
37648;BME280;23490;53.656;10.076;2022-08-19T02:36:06;55866.31;;;-145.95;93.91
37648;BME280;23490;53.656;10.076;2022-08-19T02:38:32;55935.63;;;-145.95;94.28
37648;BME280;23490;53.656;10.076;2022-08-19T02:40:59;55903.00;;;-145.95;93.90
37648;BME280;23490;53.656;10.076;2022-08-19T02:43:25;55900.97;;;-145.95;93.95
37648;BME280;23490;53.656;10.076;2022-08-19T02:45:51;55913.19;;;-145.95;94.04
37648;BME280;23490;53.656;10.076;2022-08-19T02:48:18;55909.13;;;-145.95;93.69
37648;BME280;23490;53.656;10.076;2022-08-19T02:50:44;55894.84;;;-145.95;93.27
37648;BME280;23490;53.656;10.076;2022-08-19T02:53:09;55878.53;;;-145.95;93.37
37648;BME280;23490;53.656;10.076;2022-08-19T02:55:35;55850.00;;;-145.95;93.38
37648;BME280;23490;53.656;10.076;2022-08-19T02:58:00;55870.38;;;-145.95;93.13
37648;BME280;23490;53.656;10.076;2022-08-19T03:00:26;55905.03;;;-145.95;92.97
37648;BME280;23490;53.656;10.076;2022-08-19T03:02:51;55890.78;;;-145.95;93.00
37648;BME280;23490;53.656;10.076;2022-08-19T03:05:17;55888.72;;;-145.95;93.34
37648;BME280;23490;53.656;10.076;2022-08-19T03:07:43;55894.84;;;-145.95;93.58
37648;BME280;23490;53.656;10.076;2022-08-19T03:10:08;55907.09;;;-145.95;94.43
37648;BME280;23490;53.656;10.076;2022-08-19T03:12:37;55919.31;;;-145.95;93.56
37648;BME280;23490;53.656;10.076;2022-08-19T03:15:03;55925.44;;;-145.95;93.75
37648;BME280;23490;53.656;10.076;2022-08-19T03:17:29;55884.66;;;-145.95;93.71
37648;BME280;23490;53.656;10.076;2022-08-19T03:19:54;55890.78;;;-145.95;93.82
37648;BME280;23490;53.656;10.076;2022-08-19T03:22:19;55886.69;;;-145.95;93.35
37648;BME280;23490;53.656;10.076;2022-08-19T03:24:45;55915.25;;;-145.95;93.06
37648;BME280;23490;53.656;10.076;2022-08-19T03:27:10;55898.94;;;-145.95;92.85
37648;BME280;23490;53.656;10.076;2022-08-19T03:29:36;55866.31;;;-145.95;93.15
37648;BME280;23490;53.656;10.076;2022-08-19T03:32:03;55880.56;;;-145.95;93.35
37648;BME280;23490;53.656;10.076;2022-08-19T03:34:30;55905.03;;;-145.95;93.66
37648;BME280;23490;53.656;10.076;2022-08-19T03:36:57;55935.63;;;-145.95;94.05
37648;BME280;23490;53.656;10.076;2022-08-19T03:39:23;55911.16;;;-145.95;94.17
37648;BME280;23490;53.656;10.076;2022-08-19T03:41:49;55870.38;;;-145.95;93.52
37648;BME280;23490;53.656;10.076;2022-08-19T03:44:19;55921.34;;;-145.95;93.31
37648;BME280;23490;53.656;10.076;2022-08-19T03:46:46;55858.16;;;-145.95;93.55
37648;BME280;23490;53.656;10.076;2022-08-19T03:49:12;55915.25;;;-145.95;93.51
37648;BME280;23490;53.656;10.076;2022-08-19T03:51:37;55886.69;;;-145.95;93.43
37648;BME280;23490;53.656;10.076;2022-08-19T03:54:04;55894.84;;;-145.95;93.23
37648;BME280;23490;53.656;10.076;2022-08-19T03:56:30;55903.00;;;-145.95;93.30
37648;BME280;23490;53.656;10.076;2022-08-19T03:58:56;55923.41;;;-145.95;93.50
37648;BME280;23490;53.656;10.076;2022-08-19T04:01:23;55878.53;;;-145.95;93.77
37648;BME280;23490;53.656;10.076;2022-08-19T04:03:49;55890.78;;;-145.95;93.73
37648;BME280;23490;53.656;10.076;2022-08-19T04:06:15;55917.28;;;-145.95;93.60
37648;BME280;23490;53.656;10.076;2022-08-19T04:08:41;55907.09;;;-145.95;92.98
37648;BME280;23490;53.656;10.076;2022-08-19T04:11:08;55945.84;;;-145.95;92.95
37648;BME280;23490;53.656;10.076;2022-08-19T04:13:33;55911.16;;;-145.95;93.75
37648;BME280;23490;53.656;10.076;2022-08-19T04:15:59;55900.97;;;-145.95;92.98
37648;BME280;23490;53.656;10.076;2022-08-19T04:18:24;55927.47;;;-145.95;93.23
37648;BME280;23490;53.656;10.076;2022-08-19T04:20:50;55894.84;;;-145.95;92.72
37648;BME280;23490;53.656;10.076;2022-08-19T04:23:15;55890.78;;;-145.95;93.08
37648;BME280;23490;53.656;10.076;2022-08-19T04:25:42;55896.88;;;-145.95;93.39
37648;BME280;23490;53.656;10.076;2022-08-19T04:28:09;55923.41;;;-145.95;92.51
37648;BME280;23490;53.656;10.076;2022-08-19T04:30:42;55880.56;;;-145.95;92.61
37648;BME280;23490;53.656;10.076;2022-08-19T04:33:07;55943.78;;;-145.95;93.36
37648;BME280;23490;53.656;10.076;2022-08-19T04:35:40;55927.47;;;-145.95;92.70
37648;BME280;23490;53.656;10.076;2022-08-19T04:38:06;55915.25;;;-145.95;92.98
37648;BME280;23490;53.656;10.076;2022-08-19T04:40:31;55947.88;;;-145.95;92.62
37648;BME280;23490;53.656;10.076;2022-08-19T04:43:15;55933.59;;;-145.95;93.34
37648;BME280;23490;53.656;10.076;2022-08-19T04:45:42;55913.19;;;-145.95;93.04
37648;BME280;23490;53.656;10.076;2022-08-19T04:48:08;55874.47;;;-145.95;92.84
37648;BME280;23490;53.656;10.076;2022-08-19T04:50:33;55929.50;;;-145.95;92.20
37648;BME280;23490;53.656;10.076;2022-08-19T04:52:58;55886.69;;;-145.95;92.35
37648;BME280;23490;53.656;10.076;2022-08-19T04:55:24;55886.69;;;-145.95;92.92
37648;BME280;23490;53.656;10.076;2022-08-19T04:57:50;55898.94;;;-145.95;93.08
37648;BME280;23490;53.656;10.076;2022-08-19T05:00:16;55919.31;;;-145.95;93.60
37648;BME280;23490;53.656;10.076;2022-08-19T05:02:41;55923.41;;;-145.95;94.74
37648;BME280;23490;53.656;10.076;2022-08-19T05:05:07;55919.31;;;-145.95;94.33
37648;BME280;23490;53.656;10.076;2022-08-19T05:07:32;55919.31;;;-145.95;93.85
37648;BME280;23490;53.656;10.076;2022-08-19T05:09:57;55890.78;;;-145.95;93.33
37648;BME280;23490;53.656;10.076;2022-08-19T05:12:23;55927.47;;;-145.95;93.64
37648;BME280;23490;53.656;10.076;2022-08-19T05:14:48;55927.47;;;-145.95;94.13
37648;BME280;23490;53.656;10.076;2022-08-19T05:17:14;55921.34;;;-145.95;94.23
37648;BME280;23490;53.656;10.076;2022-08-19T05:19:40;55947.88;;;-145.95;93.89
37648;BME280;23490;53.656;10.076;2022-08-19T05:22:24;55915.25;;;-145.95;93.63
37648;BME280;23490;53.656;10.076;2022-08-19T05:25:01;55927.47;;;-145.95;93.93
37648;BME280;23490;53.656;10.076;2022-08-19T05:27:27;55905.03;;;-145.95;93.97
37648;BME280;23490;53.656;10.076;2022-08-19T05:29:52;55898.94;;;-145.95;93.40
37648;BME280;23490;53.656;10.076;2022-08-19T05:32:18;55911.16;;;-145.95;93.91
37648;BME280;23490;53.656;10.076;2022-08-19T05:34:43;55911.16;;;-145.95;93.60
37648;BME280;23490;53.656;10.076;2022-08-19T05:37:08;55898.94;;;-145.95;93.43
37648;BME280;23490;53.656;10.076;2022-08-19T05:39:35;55903.00;;;-145.95;93.00
37648;BME280;23490;53.656;10.076;2022-08-19T05:42:03;55933.59;;;-145.95;93.75
37648;BME280;23490;53.656;10.076;2022-08-19T05:44:30;55947.88;;;-145.95;93.33
37648;BME280;23490;53.656;10.076;2022-08-19T05:46:59;55862.22;;;-145.95;93.37
37648;BME280;23490;53.656;10.076;2022-08-19T05:49:24;55919.31;;;-145.95;93.22
37648;BME280;23490;53.656;10.076;2022-08-19T05:51:50;55903.00;;;-145.95;93.23
37648;BME280;23490;53.656;10.076;2022-08-19T05:54:16;55915.25;;;-145.95;93.32
37648;BME280;23490;53.656;10.076;2022-08-19T05:56:42;55915.25;;;-145.95;92.93
37648;BME280;23490;53.656;10.076;2022-08-19T05:59:08;55943.78;;;-145.95;93.02
37648;BME280;23490;53.656;10.076;2022-08-19T06:01:37;55929.50;;;-145.95;92.85
37648;BME280;23490;53.656;10.076;2022-08-19T06:04:03;55968.25;;;-145.95;93.08
37648;BME280;23490;53.656;10.076;2022-08-19T06:06:28;55911.16;;;-145.95;92.87
37648;BME280;23490;53.656;10.076;2022-08-19T06:08:53;55923.41;;;-145.95;93.31
37648;BME280;23490;53.656;10.076;2022-08-19T06:11:32;55964.19;;;-145.95;92.99
37648;BME280;23490;53.656;10.076;2022-08-19T06:14:00;55943.78;;;-145.95;92.82
37648;BME280;23490;53.656;10.076;2022-08-19T06:16:25;55915.25;;;-145.95;93.40
37648;BME280;23490;53.656;10.076;2022-08-19T06:18:52;55923.41;;;-145.95;93.38
37648;BME280;23490;53.656;10.076;2022-08-19T06:21:21;55907.09;;;-145.95;93.21
37648;BME280;23490;53.656;10.076;2022-08-19T06:23:47;55927.47;;;-145.95;92.89
37648;BME280;23490;53.656;10.076;2022-08-19T06:26:13;55931.56;;;-145.95;93.34
37648;BME280;23490;53.656;10.076;2022-08-19T06:28:39;55915.25;;;-145.95;93.37
37648;BME280;23490;53.656;10.076;2022-08-19T06:31:08;55909.13;;;-145.95;93.10
37648;BME280;23490;53.656;10.076;2022-08-19T06:33:33;55935.63;;;-145.95;92.89
37648;BME280;23490;53.656;10.076;2022-08-19T06:35:58;55907.09;;;-145.95;92.88
37648;BME280;23490;53.656;10.076;2022-08-19T06:38:24;55878.53;;;-145.95;92.60
37648;BME280;23490;53.656;10.076;2022-08-19T06:40:50;55960.09;;;-145.95;92.04
37648;BME280;23490;53.656;10.076;2022-08-19T06:43:15;55923.41;;;-145.95;91.34
37648;BME280;23490;53.656;10.076;2022-08-19T06:45:41;55927.47;;;-145.95;90.88
37648;BME280;23490;53.656;10.076;2022-08-19T06:48:06;55915.25;;;-145.95;90.39
37648;BME280;23490;53.656;10.076;2022-08-19T06:50:32;55915.25;;;-145.95;90.66
37648;BME280;23490;53.656;10.076;2022-08-19T06:52:57;55894.84;;;-145.95;90.00
37648;BME280;23490;53.656;10.076;2022-08-19T06:55:22;55919.31;;;-145.95;89.35
37648;BME280;23490;53.656;10.076;2022-08-19T06:57:48;55919.31;;;-145.95;89.51
37648;BME280;23490;53.656;10.076;2022-08-19T07:00:18;55927.47;;;-145.95;89.55
37648;BME280;23490;53.656;10.076;2022-08-19T07:02:43;55900.97;;;-145.95;90.94
37648;BME280;23490;53.656;10.076;2022-08-19T07:05:09;55943.78;;;-145.95;91.12
37648;BME280;23490;53.656;10.076;2022-08-19T07:07:34;55911.16;;;-145.95;90.67
37648;BME280;23490;53.656;10.076;2022-08-19T07:10:00;55915.25;;;-145.95;90.00
37648;BME280;23490;53.656;10.076;2022-08-19T07:12:25;55919.31;;;-145.95;90.08
37648;BME280;23490;53.656;10.076;2022-08-19T07:14:52;55907.09;;;-145.95;90.21
37648;BME280;23490;53.656;10.076;2022-08-19T07:17:17;55931.56;;;-145.95;90.08
37648;BME280;23490;53.656;10.076;2022-08-19T07:19:43;55945.84;;;-145.95;90.59
37648;BME280;23490;53.656;10.076;2022-08-19T07:22:09;55947.88;;;-145.95;90.14
37648;BME280;23490;53.656;10.076;2022-08-19T07:24:34;55909.13;;;-145.95;90.52
37648;BME280;23490;53.656;10.076;2022-08-19T07:27:00;55907.09;;;-145.95;90.24
37648;BME280;23490;53.656;10.076;2022-08-19T07:29:27;55917.28;;;-145.95;90.17
37648;BME280;23490;53.656;10.076;2022-08-19T07:31:54;55919.31;;;-145.95;90.72
37648;BME280;23490;53.656;10.076;2022-08-19T07:34:24;55939.72;;;-145.95;90.74
37648;BME280;23490;53.656;10.076;2022-08-19T07:36:49;55931.56;;;-145.95;90.82
37648;BME280;23490;53.656;10.076;2022-08-19T07:39:19;55956.03;;;-145.95;90.79
37648;BME280;23490;53.656;10.076;2022-08-19T07:41:45;55943.78;;;-145.95;89.85
37648;BME280;23490;53.656;10.076;2022-08-19T07:44:11;55911.16;;;-145.95;90.08
37648;BME280;23490;53.656;10.076;2022-08-19T07:46:38;55970.31;;;-145.95;90.24
37648;BME280;23490;53.656;10.076;2022-08-19T07:49:05;55915.25;;;-145.95;90.56
37648;BME280;23490;53.656;10.076;2022-08-19T07:51:31;55937.66;;;-145.95;90.50
37648;BME280;23490;53.656;10.076;2022-08-19T07:53:56;55968.25;;;-145.95;90.85
37648;BME280;23490;53.656;10.076;2022-08-19T07:56:21;55880.56;;;-145.95;91.08
37648;BME280;23490;53.656;10.076;2022-08-19T07:58:47;55909.13;;;-145.95;91.03
37648;BME280;23490;53.656;10.076;2022-08-19T08:01:15;55947.88;;;-145.95;91.04
37648;BME280;23490;53.656;10.076;2022-08-19T08:03:41;55931.56;;;-145.95;91.17
37648;BME280;23490;53.656;10.076;2022-08-19T08:06:27;55951.94;;;-145.95;90.39
37648;BME280;23490;53.656;10.076;2022-08-19T08:09:11;55972.34;;;-145.95;90.19
37648;BME280;23490;53.656;10.076;2022-08-19T08:14:33;55931.56;;;-145.95;90.47
37648;BME280;23490;53.656;10.076;2022-08-19T08:17:00;55915.25;;;-145.95;90.53
37648;BME280;23490;53.656;10.076;2022-08-19T08:19:26;55968.25;;;-145.95;91.22
37648;BME280;23490;53.656;10.076;2022-08-19T08:21:52;55927.47;;;-145.95;90.32
37648;BME280;23490;53.656;10.076;2022-08-19T08:24:18;55929.50;;;-145.95;89.96
37648;BME280;23490;53.656;10.076;2022-08-19T08:26:43;55943.78;;;-145.95;89.55
37648;BME280;23490;53.656;10.076;2022-08-19T08:29:09;55931.56;;;-145.95;89.58
37648;BME280;23490;53.656;10.076;2022-08-19T08:31:35;55949.91;;;-145.95;89.27
37648;BME280;23490;53.656;10.076;2022-08-19T08:34:00;55947.88;;;-145.95;88.77
37648;BME280;23490;53.656;10.076;2022-08-19T08:36:25;55927.47;;;-145.95;89.64
37648;BME280;23490;53.656;10.076;2022-08-19T08:38:52;55915.25;;;-145.95;89.61
37648;BME280;23490;53.656;10.076;2022-08-19T08:44:02;55956.03;;;-145.95;88.26
37648;BME280;23490;53.656;10.076;2022-08-19T08:46:32;55964.19;;;-145.95;89.19
37648;BME280;23490;53.656;10.076;2022-08-19T08:51:37;55919.31;;;-145.95;89.34
37648;BME280;23490;53.656;10.076;2022-08-19T08:54:08;55943.78;;;-145.95;89.92
37648;BME280;23490;53.656;10.076;2022-08-19T08:56:34;55915.25;;;-145.95;89.92
37648;BME280;23490;53.656;10.076;2022-08-19T09:01:28;55917.28;;;-145.95;90.17
37648;BME280;23490;53.656;10.076;2022-08-19T09:03:54;55911.16;;;-145.95;90.03
37648;BME280;23490;53.656;10.076;2022-08-19T09:14:32;55923.41;;;-145.95;90.40
37648;BME280;23490;53.656;10.076;2022-08-19T09:16:59;55923.41;;;-145.95;90.21
37648;BME280;23490;53.656;10.076;2022-08-19T09:19:24;55935.63;;;-145.95;90.41
37648;BME280;23490;53.656;10.076;2022-08-19T09:21:50;55919.31;;;-145.95;89.85
37648;BME280;23490;53.656;10.076;2022-08-19T09:24:15;55945.84;;;-145.95;89.84
37648;BME280;23490;53.656;10.076;2022-08-19T09:26:41;55992.72;;;-145.95;89.44
37648;BME280;23490;53.656;10.076;2022-08-19T09:29:08;55956.03;;;-145.95;89.12
37648;BME280;23490;53.656;10.076;2022-08-19T09:31:34;55927.47;;;-145.95;89.76
37648;BME280;23490;53.656;10.076;2022-08-19T09:34:00;55915.25;;;-145.95;89.66
37648;BME280;23490;53.656;10.076;2022-08-19T09:36:26;55933.59;;;-145.95;89.81
37648;BME280;23490;53.656;10.076;2022-08-19T09:38:54;55956.03;;;-145.95;89.86
37648;BME280;23490;53.656;10.076;2022-08-19T09:41:20;55931.56;;;-145.95;89.99
37648;BME280;23490;53.656;10.076;2022-08-19T09:43:47;55939.72;;;-145.95;90.12
37648;BME280;23490;53.656;10.076;2022-08-19T09:46:13;55956.03;;;-145.95;89.67
37648;BME280;23490;53.656;10.076;2022-08-19T09:48:41;55927.47;;;-145.95;90.12
37648;BME280;23490;53.656;10.076;2022-08-19T09:51:12;55972.34;;;-145.95;90.23
37648;BME280;23490;53.656;10.076;2022-08-19T09:53:40;55968.25;;;-145.95;88.93
37648;BME280;23490;53.656;10.076;2022-08-19T09:56:06;55935.63;;;-145.95;88.38
37648;BME280;23490;53.656;10.076;2022-08-19T09:58:32;55964.19;;;-145.95;87.60
37648;BME280;23490;53.656;10.076;2022-08-19T10:00:58;55931.56;;;-145.95;87.77
37648;BME280;23490;53.656;10.076;2022-08-19T10:03:24;55939.72;;;-145.95;87.78
37648;BME280;23490;53.656;10.076;2022-08-19T10:05:50;55976.41;;;-145.95;87.21
37648;BME280;23490;53.656;10.076;2022-08-19T10:08:20;55984.56;;;-145.95;87.15
37648;BME280;23490;53.656;10.076;2022-08-19T10:10:47;55943.78;;;-145.95;87.28
37648;BME280;23490;53.656;10.076;2022-08-19T10:13:14;55939.72;;;-145.95;86.95
37648;BME280;23490;53.656;10.076;2022-08-19T10:15:39;55980.50;;;-145.95;87.22
37648;BME280;23490;53.656;10.076;2022-08-19T10:18:06;55980.50;;;-145.95;85.17
37648;BME280;23490;53.656;10.076;2022-08-19T10:20:31;55956.03;;;-145.95;85.60
37648;BME280;23490;53.656;10.076;2022-08-19T10:22:57;55931.56;;;-145.95;86.63
37648;BME280;23490;53.656;10.076;2022-08-19T10:25:24;55915.25;;;-145.95;85.57
37648;BME280;23490;53.656;10.076;2022-08-19T10:27:49;55941.75;;;-145.95;85.04
37648;BME280;23490;53.656;10.076;2022-08-19T10:30:14;55951.94;;;-145.95;84.81
37648;BME280;23490;53.656;10.076;2022-08-19T10:32:40;55923.41;;;-145.95;85.52
37648;BME280;23490;53.656;10.076;2022-08-19T10:35:05;55978.47;;;-145.95;85.55
37648;BME280;23490;53.656;10.076;2022-08-19T10:37:34;55951.94;;;-145.95;86.10
37648;BME280;23490;53.656;10.076;2022-08-19T10:40:02;55943.78;;;-145.95;85.01
37648;BME280;23490;53.656;10.076;2022-08-19T10:42:28;55984.56;;;-145.95;84.54
37648;BME280;23490;53.656;10.076;2022-08-19T10:44:55;55947.88;;;-145.95;84.27
37648;BME280;23490;53.656;10.076;2022-08-19T10:47:21;55947.88;;;-145.95;84.49
37648;BME280;23490;53.656;10.076;2022-08-19T10:49:48;55927.47;;;-145.95;83.83
37648;BME280;23490;53.656;10.076;2022-08-19T10:52:32;55982.53;;;-145.95;84.20
37648;BME280;23490;53.656;10.076;2022-08-19T10:55:04;55974.38;;;-145.95;83.84
37648;BME280;23490;53.656;10.076;2022-08-19T10:57:49;55966.22;;;-145.95;83.76
37648;BME280;23490;53.656;10.076;2022-08-19T11:00:14;55941.75;;;-145.95;83.56
37648;BME280;23490;53.656;10.076;2022-08-19T11:02:39;55960.09;;;-145.95;83.79
37648;BME280;23490;53.656;10.076;2022-08-19T11:05:06;55929.50;;;-145.95;83.72
37648;BME280;23490;53.656;10.076;2022-08-19T11:07:32;55947.88;;;-145.95;84.13
37648;BME280;23490;53.656;10.076;2022-08-19T11:09:57;55935.63;;;-145.95;84.66
37648;BME280;23490;53.656;10.076;2022-08-19T11:12:22;55923.41;;;-145.95;84.34
37648;BME280;23490;53.656;10.076;2022-08-19T11:14:48;55958.06;;;-145.95;83.82
37648;BME280;23490;53.656;10.076;2022-08-19T11:17:15;55937.66;;;-145.95;84.16
37648;BME280;23490;53.656;10.076;2022-08-19T11:19:41;55945.84;;;-145.95;83.84
37648;BME280;23490;53.656;10.076;2022-08-19T11:22:07;55935.63;;;-145.95;84.39
37648;BME280;23490;53.656;10.076;2022-08-19T11:24:34;55964.19;;;-145.95;84.86
37648;BME280;23490;53.656;10.076;2022-08-19T11:27:01;55982.53;;;-145.95;84.19
37648;BME280;23490;53.656;10.076;2022-08-19T11:29:27;55927.47;;;-145.95;84.20
37648;BME280;23490;53.656;10.076;2022-08-19T11:31:54;55947.88;;;-145.95;83.64
37648;BME280;23490;53.656;10.076;2022-08-19T11:34:21;55935.63;;;-145.95;83.92
37648;BME280;23490;53.656;10.076;2022-08-19T11:36:46;55931.56;;;-145.95;83.24
37648;BME280;23490;53.656;10.076;2022-08-19T11:39:14;55968.25;;;-145.95;83.61
37648;BME280;23490;53.656;10.076;2022-08-19T11:41:39;55966.22;;;-145.95;83.19
37648;BME280;23490;53.656;10.076;2022-08-19T11:44:05;55951.94;;;-145.95;83.57
37648;BME280;23490;53.656;10.076;2022-08-19T11:46:32;55980.50;;;-145.95;82.00
37648;BME280;23490;53.656;10.076;2022-08-19T11:48:58;55984.56;;;-145.95;80.83
37648;BME280;23490;53.656;10.076;2022-08-19T11:51:25;55960.09;;;-145.95;81.15
37648;BME280;23490;53.656;10.076;2022-08-19T11:53:51;55960.09;;;-145.95;80.37
37648;BME280;23490;53.656;10.076;2022-08-19T11:56:17;55958.06;;;-145.95;80.31
37648;BME280;23490;53.656;10.076;2022-08-19T11:58:43;55966.22;;;-145.95;79.92
37648;BME280;23490;53.656;10.076;2022-08-19T12:01:09;55925.44;;;-145.95;79.30
37648;BME280;23490;53.656;10.076;2022-08-19T12:03:36;55943.78;;;-145.95;79.19
37648;BME280;23490;53.656;10.076;2022-08-19T12:06:05;55996.81;;;-145.95;78.50
37648;BME280;23490;53.656;10.076;2022-08-19T12:08:31;55953.97;;;-145.95;79.37
37648;BME280;23490;53.656;10.076;2022-08-19T12:10:56;55905.03;;;-145.95;78.52
37648;BME280;23490;53.656;10.076;2022-08-19T12:13:21;55937.66;;;-145.95;78.27
37648;BME280;23490;53.656;10.076;2022-08-19T12:15:47;55972.34;;;-145.95;78.75
37648;BME280;23490;53.656;10.076;2022-08-19T12:18:12;55956.03;;;-145.95;78.12
37648;BME280;23490;53.656;10.076;2022-08-19T12:20:39;55960.09;;;-145.95;78.17
37648;BME280;23490;53.656;10.076;2022-08-19T12:23:05;55960.09;;;-145.95;77.34
37648;BME280;23490;53.656;10.076;2022-08-19T12:25:31;55986.63;;;-145.95;78.04
37648;BME280;23490;53.656;10.076;2022-08-19T12:27:58;55939.72;;;-145.95;78.05
37648;BME280;23490;53.656;10.076;2022-08-19T12:30:23;55996.81;;;-145.95;77.96
37648;BME280;23490;53.656;10.076;2022-08-19T12:32:49;55943.78;;;-145.95;78.69
37648;BME280;23490;53.656;10.076;2022-08-19T12:35:16;55976.41;;;-145.95;77.97
37648;BME280;23490;53.656;10.076;2022-08-19T12:37:42;55951.94;;;-145.95;77.29
37648;BME280;23490;53.656;10.076;2022-08-19T12:40:09;55962.16;;;-145.95;76.25
37648;BME280;23490;53.656;10.076;2022-08-19T12:42:36;55960.09;;;-145.95;77.39
37648;BME280;23490;53.656;10.076;2022-08-19T12:45:02;56004.97;;;-145.95;77.20
37648;BME280;23490;53.656;10.076;2022-08-19T12:47:28;56021.28;;;-145.95;75.07
37648;BME280;23490;53.656;10.076;2022-08-19T12:49:53;55968.25;;;-145.95;75.03